Time;durP1;ratioP1;P1;durP2;ratioP2;P2;SDS_P1;SDS_P2;PMS_P1;PMS_P2;Temp;Humidity;BMP_temperature;BMP_pressure;BME280_temperature;BME280_humidity;BME280_pressure;Samples;Min_cycle;Max_cycle;Signal;HPM_P1;HPM_P2
2023/03/25 00:00:06;;;;;;;45.05;2.58;;;;;;;21.66;60.80;98377.56;7315060;19;129623;-42
2023/03/25 00:02:36;;;;;;;30.75;1.67;;;;;;;21.65;61.23;98375.91;7315742;19;129122;-42
2023/03/25 00:05:04;;;;;;;54.00;2.92;;;;;;;21.58;61.08;98367.16;7314598;19;129722;-42
2023/03/25 00:07:33;;;;;;;42.88;2.30;;;;;;;21.64;61.05;98378.72;7312251;19;130255;-43
2023/03/25 00:09:59;;;;;;;31.55;1.65;;;;;;;21.64;60.85;98376.09;7314644;19;129643;-43
2023/03/25 00:12:29;;;;;;;37.42;2.05;;;;;;;21.65;61.21;98373.31;7314055;19;130023;-43
2023/03/25 00:14:57;;;;;;;44.85;2.50;;;;;;;21.56;60.76;98356.03;7314787;19;129519;-42
2023/03/25 00:17:27;;;;;;;56.25;2.88;;;;;;;21.65;61.37;98362.84;7310477;19;130012;-44
2023/03/25 00:19:54;;;;;;;33.30;1.95;;;;;;;21.64;61.10;98369.06;7315477;19;129244;-41
2023/03/25 00:22:21;;;;;;;29.00;1.55;;;;;;;21.63;61.66;98364.84;7314936;19;128827;-41
2023/03/25 00:24:50;;;;;;;61.45;3.15;;;;;;;21.64;61.07;98366.47;7313619;19;129040;-42
2023/03/25 00:27:17;;;;;;;54.20;2.78;;;;;;;21.63;60.90;98362.22;7311783;19;129831;-42
2023/03/25 00:29:46;;;;;;;32.00;1.77;;;;;;;21.62;61.20;98355.34;7314450;19;129643;-43
2023/03/25 00:32:14;;;;;;;40.20;2.08;;;;;;;21.62;61.39;98346.66;7314826;19;129352;-42
2023/03/25 00:34:45;;;;;;;22.75;1.20;;;;;;;21.61;61.02;98345.88;7314689;19;129329;-43
2023/03/25 00:37:20;;;;;;;44.75;2.40;;;;;;;21.52;60.53;98323.34;7311018;19;129114;-42
2023/03/25 00:39:47;;;;;;;60.53;2.90;;;;;;;21.65;60.75;98339.31;7313284;19;129650;-42
2023/03/25 00:42:16;;;;;;;;;;;;;;;21.75;60.90;98337.31;7315756;19;128787;-42
2023/03/25 00:44:42;;;;;;;27.80;1.55;;;;;;;21.71;60.67;98333.41;7314553;19;129042;-42
2023/03/25 00:47:10;;;;;;;64.85;3.65;;;;;;;21.72;60.50;98335.03;7311517;19;130372;-43
2023/03/25 00:49:37;;;;;;;47.65;2.35;;;;;;;21.71;60.74;98338.66;7314547;19;129158;-43
2023/03/25 00:52:03;;;;;;;49.25;2.65;;;;;;;21.65;60.68;98328.06;7314886;19;129191;-42
2023/03/25 00:54:32;;;;;;;64.18;3.65;;;;;;;21.73;60.41;98339.25;7313201;19;129605;-42
2023/03/25 00:56:59;;;;;;;27.67;1.60;;;;;;;21.72;60.63;98337.66;7310977;19;129118;-42
2023/03/25 00:59:26;;;;;;;56.67;2.97;;;;;;;21.72;60.28;98337.66;7311199;19;129676;-41
2023/03/25 01:01:55;;;;;;;;;;;;;;;21.78;61.16;98342.22;7314678;19;129293;-42
2023/03/25 01:04:23;;;;;;;57.47;3.28;;;;;;;21.74;60.30;98340.91;7313176;19;129527;-43
2023/03/25 01:06:53;;;;;;;35.50;1.95;;;;;;;21.72;60.87;98347.28;7310976;19;129239;-42
2023/03/25 01:09:20;;;;;;;37.13;1.88;;;;;;;21.71;60.20;98349.09;7312539;19;129447;-42
2023/03/25 01:11:47;;;;;;;43.33;2.25;;;;;;;21.69;60.77;98343.22;7313629;19;128936;-44
2023/03/25 01:14:19;;;;;;;45.10;2.25;;;;;;;21.68;60.83;98338.97;7313061;19;129519;-42
2023/03/25 01:16:57;;;;;;;27.27;1.58;;;;;;;21.71;60.39;98333.41;7311516;19;129656;-43
2023/03/25 01:19:27;;;;;;;30.52;1.58;;;;;;;21.69;61.01;98332.75;7307855;19;130863;-42
2023/03/25 01:21:54;;;;;;;29.60;1.60;;;;;;;21.70;60.33;98326.53;7313385;19;128867;-44
2023/03/25 01:24:20;;;;;;;74.72;4.10;;;;;;;21.72;60.30;98329.78;7312905;19;129381;-41
2023/03/25 01:26:50;;;;;;;7.70;0.55;;;;;;;21.71;60.94;98332.59;7310745;19;129432;-42
2023/03/25 01:29:19;;;;;;;24.90;1.42;;;;;;;21.70;60.64;98326.53;7312789;19;129402;-42
2023/03/25 01:31:45;;;;;;;31.00;1.77;;;;;;;21.69;60.94;98324.91;7311912;19;128743;-42
2023/03/25 01:34:12;;;;;;;50.53;2.60;;;;;;;21.69;60.46;98324.91;7312293;19;129428;-41
2023/03/25 01:36:39;;;;;;;35.33;1.90;;;;;;;21.69;60.02;98319.69;7311219;19;129589;-44
2023/03/25 01:39:07;;;;;;;;;;;;;;;21.75;61.10;98313.75;7309625;19;129198;-43
2023/03/25 01:41:37;;;;;;;16.20;1.02;;;;;;;21.58;60.97;98296.53;7312722;19;129075;-42
2023/03/25 01:44:28;;;;;;;62.65;3.17;;;;;;;21.69;61.01;98305.78;7312384;19;129282;-42
2023/03/25 01:47:02;;;;;;;76.10;4.07;;;;;;;21.69;61.25;98295.31;7309081;19;130271;-44
2023/03/25 01:49:43;;;;;;;44.20;2.22;;;;;;;21.70;61.12;98294.34;7310521;19;129201;-43
2023/03/25 01:52:23;;;;;;;43.25;2.17;;;;;;;21.70;61.13;98296.97;7313043;19;129839;-42
2023/03/25 01:54:52;;;;;;;42.38;2.25;;;;;;;21.66;60.48;98288.63;7312223;19;129458;-41
2023/03/25 01:57:22;;;;;;;30.83;1.65;;;;;;;21.66;60.80;98288.63;7309571;19;130762;-43
2023/03/25 01:59:53;;;;;;;31.98;1.70;;;;;;;21.64;60.54;98274.09;7309099;19;129577;-43
2023/03/25 02:02:20;;;;;;;16.55;1.13;;;;;;;21.66;60.55;98277.34;7311137;19;128825;-43
2023/03/25 02:04:45;;;;;;;;;;;;;;;21.72;60.96;98277.47;7311992;19;130157;-43
2023/03/25 02:07:15;;;;;;;39.95;2.22;;;;;;;21.59;60.70;98258.09;7310039;19;128950;-42
2023/03/25 02:09:42;;;;;;;15.20;1.08;;;;;;;21.64;60.32;98274.09;7311613;19;129216;-42
2023/03/25 02:12:09;;;;;;;51.30;2.72;;;;;;;21.66;60.44;98278.19;7311261;19;128976;-42
2023/03/25 02:14:38;;;;;;;50.25;2.67;;;;;;;21.66;60.75;98282.59;7309010;19;129705;-43
2023/03/25 02:17:28;;;;;;;36.95;2.05;;;;;;;21.68;61.32;98289.25;7311045;19;129731;-43
2023/03/25 02:20:13;;;;;;;32.53;1.75;;;;;;;21.67;60.62;98279.78;7311662;19;129638;-43
2023/03/25 02:22:57;;;;;;;28.58;1.55;;;;;;;21.66;60.99;98274.75;7311396;19;128768;-42
2023/03/25 02:26:05;;;;;;;30.38;1.65;;;;;;;21.65;60.86;98281.75;7310031;19;129146;-44
2023/03/25 02:28:56;;;;;;;54.03;2.70;;;;;;;21.68;60.79;98267.53;7311059;19;129493;-43
2023/03/25 02:31:47;;;;;;;48.83;2.53;;;;;;;21.65;60.58;98275.75;7311355;19;129230;-43
2023/03/25 02:34:38;;;;;;;87.75;4.68;;;;;;;21.57;61.11;98262.69;7308858;19;129251;-41
2023/03/25 02:37:45;;;;;;;54.63;2.72;;;;;;;21.64;60.82;98274.91;7309649;19;130397;-43
2023/03/25 02:40:18;;;;;;;44.80;2.42;;;;;;;21.64;60.53;98266.25;7311090;19;129043;-42
2023/03/25 02:42:51;;;;;;;53.08;2.70;;;;;;;21.62;60.71;98276.88;7317402;19;129701;-42
2023/03/25 02:45:39;;;;;;;51.10;2.55;;;;;;;21.65;61.40;98266.06;7316843;19;129195;-43
2023/03/25 02:48:17;;;;;;;41.70;2.13;;;;;;;21.55;60.33;98244.53;7315957;19;129063;-41
2023/03/25 02:50:51;;;;;;;43.15;2.38;;;;;;;21.60;61.19;98257.91;7316955;19;130144;-42
2023/03/25 02:53:32;;;;;;;28.83;1.52;;;;;;;21.63;60.99;98256.78;7317683;19;129623;-42
2023/03/25 02:56:02;;;;;;;36.75;1.98;;;;;;;21.61;60.57;98254.34;7316724;19;129691;-43
2023/03/25 02:58:30;;;;;;;39.63;1.98;;;;;;;21.62;60.76;98261.19;7313470;19;129006;-43
2023/03/25 03:00:57;;;;;;;46.38;2.40;;;;;;;21.62;61.16;98266.41;7315511;19;128985;-43
2023/03/25 03:03:25;;;;;;;55.88;2.90;;;;;;;21.62;60.82;98265.59;7316634;19;129348;-42
2023/03/25 03:05:56;;;;;;;29.73;1.60;;;;;;;21.60;60.55;98267.59;7316974;19;128814;-42
2023/03/25 03:08:35;;;;;;;32.83;1.85;;;;;;;21.62;61.33;98260.38;7315825;19;129474;-42
2023/03/25 03:11:10;;;;;;;26.73;1.35;;;;;;;21.60;60.84;98257.91;7316343;19;129295;-43
2023/03/25 03:13:39;;;;;;;16.38;1.00;;;;;;;21.60;61.25;98263.16;7314418;19;129139;-43
2023/03/25 03:16:41;;;;;;;27.08;1.50;;;;;;;21.62;60.83;98261.19;7316008;19;128892;-42
2023/03/25 03:19:08;;;;;;;19.27;1.20;;;;;;;21.61;60.95;98261.38;7314971;19;128874;-42
2023/03/25 03:21:53;;;;;;;44.42;2.33;;;;;;;21.61;61.37;98258.75;7315654;19;129027;-42
2023/03/25 03:24:39;;;;;;;63.25;3.33;;;;;;;21.62;60.88;98263.81;7316379;19;129850;-43
2023/03/25 03:27:43;;;;;;;59.13;3.00;;;;;;;21.59;61.20;98261.53;7316011;19;129198;-42
2023/03/25 03:30:16;;;;;;;61.53;3.10;;;;;;;21.60;61.43;98262.34;7312378;19;129172;-42
2023/03/25 03:32:52;;;;;;;44.05;2.22;;;;;;;21.49;60.62;98240.00;7314845;19;130267;-41
2023/03/25 03:35:30;;;;;;;32.78;1.73;;;;;;;21.58;60.89;98262.53;7316495;19;130942;-41
2023/03/25 03:38:00;;;;;;;32.30;1.70;;;;;;;21.59;61.20;98260.72;7314427;19;128829;-43
2023/03/25 03:40:28;;;;;;;34.80;1.73;;;;;;;21.57;60.80;98253.03;7316521;19;129370;-41
2023/03/25 03:43:03;;;;;;;51.58;2.63;;;;;;;21.57;61.29;98262.69;7313688;19;129483;-42
2023/03/25 03:45:47;;;;;;;49.55;2.47;;;;;;;21.57;60.82;98260.88;7314954;19;129277;-41
2023/03/25 03:48:37;;;;;;;51.55;2.53;;;;;;;21.60;60.68;98273.63;7313496;19;130591;-41
2023/03/25 03:51:17;;;;;;;56.97;2.95;;;;;;;21.59;60.63;98268.56;7313891;19;130035;-41
2023/03/25 03:54:03;;;;;;;42.05;2.20;;;;;;;21.58;60.80;98273.00;7314562;19;129135;-42
2023/03/25 03:56:45;;;;;;;47.78;2.42;;;;;;;21.58;61.33;98265.16;7314271;19;129530;-42
2023/03/25 03:59:40;;;;;;;37.38;1.85;;;;;;;21.59;61.37;98265.94;7313913;19;128902;-41
2023/03/25 04:02:16;;;;;;;28.80;1.63;;;;;;;21.47;60.67;98251.66;7314513;19;129201;-43
2023/03/25 04:04:42;;;;;;;29.58;1.60;;;;;;;21.57;61.06;98271.34;7314271;19;129921;-42
2023/03/25 04:07:13;;;;;;;32.83;1.85;;;;;;;21.48;61.24;98264.53;7314300;19;129762;-42
2023/03/25 04:10:01;;;;;;;34.20;1.80;;;;;;;21.58;61.46;98280.03;7315718;19;128820;-41
2023/03/25 04:12:38;;;;;;;40.83;2.17;;;;;;;21.56;61.41;98282.81;7314548;19;129887;-43
2023/03/25 04:15:05;;;;;;;36.60;1.87;;;;;;;21.50;60.60;98293.13;7312075;19;131059;-42
2023/03/25 04:17:32;;;;;;;55.53;2.65;;;;;;;21.24;60.56;98277.69;7312562;19;129368;-42
2023/03/25 04:19:59;;;;;;;25.90;1.42;;;;;;;21.32;61.53;98284.72;7313171;19;128826;-42
2023/03/25 04:22:26;;;;;;;37.35;2.05;;;;;;;21.23;60.45;98278.69;7314022;19;129087;-42
2023/03/25 04:24:53;;;;;;;;;;;;;;;21.33;60.18;98281.09;7313419;19;129011;-43
2023/03/25 04:27:21;;;;;;;;;;;;;;;21.43;59.09;98264.25;7314535;19;129505;-42
2023/03/25 04:29:50;;;;;;;;;;;;;;;21.79;58.72;98277.63;7313967;19;129136;-42
2023/03/25 04:32:20;;;;;;;;;;;;;;;21.98;57.76;98285.84;7313006;19;131286;-41
2023/03/25 04:34:46;;;;;;;;;;;;;;;22.17;57.38;98281.13;7314625;19;129104;-42
2023/03/25 04:37:12;;;;;;;;;;;;;;;22.34;56.85;98275.63;7313387;19;129746;-42
2023/03/25 04:39:38;;;;;;;;;;;;;;;22.51;56.33;98278.91;7308093;19;131898;-41
2023/03/25 04:42:04;;;;;;;;;;;;;;;22.63;55.88;98273.09;7315635;19;129035;-41
2023/03/25 04:44:37;;;;;;;;;;;;;;;22.63;55.88;98252.13;7314038;19;130392;-42
2023/03/25 04:47:07;;;;;;;;;;;;;;;22.92;55.37;98277.56;7313787;19;129504;-43
2023/03/25 04:49:32;;;;;;;;;;;;;;;23.09;54.34;98279.00;7310833;19;130249;-40
2023/03/25 04:52:01;;;;;;;;;;;;;;;23.20;54.06;98281.19;7311856;19;130055;-42
2023/03/25 04:54:27;;;;;;;;;;;;;;;23.28;54.23;98286.34;7311334;19;129680;-41
2023/03/25 04:56:52;;;;;;;;;;;;;;;23.43;54.02;98297.66;7310860;19;129771;-43
2023/03/25 04:59:20;;;;;;;;;;;;;;;23.56;53.28;98292.56;7310176;19;129269;-42
2023/03/25 05:01:46;;;;;;;;;;;;;;;23.64;53.42;98289.81;7313703;19;129636;-43
2023/03/25 05:04:16;;;;;;;;;;;;;;;23.80;52.84;98294.84;7311504;19;131514;-42
2023/03/25 05:06:44;;;;;;;;;;;;;;;23.77;52.11;98263.72;7311121;19;129492;-42
2023/03/25 05:09:14;;;;;;;;;;;;;;;23.86;52.86;98282.81;7309708;19;129109;-42
2023/03/25 05:11:42;;;;;;;;;;;;;;;23.81;52.81;98291.25;7311805;19;131181;-42
2023/03/25 05:14:12;;;;;;;;;;;;;;;23.71;52.50;98293.34;7310252;19;129461;-42
2023/03/25 05:16:38;;;;;;;;;;;;;;;23.61;53.24;98295.44;7306610;19;129472;-41
2023/03/25 05:19:05;;;;;;;;;;;;;;;23.52;53.34;98288.66;7306773;19;129489;-42
2023/03/25 05:21:37;;;;;;;;;;;;;;;23.35;54.44;98283.81;7313209;19;129137;-42
2023/03/25 05:24:13;;;;;;;;;;;;;;;23.09;54.07;98273.75;7309984;19;131134;-41
2023/03/25 05:26:40;;;;;;;;;;;;;;;23.04;54.63;98286.59;7308290;19;129072;-43
2023/03/25 05:29:07;;;;;;;;;;;;;;;22.89;55.27;98281.34;7311005;19;129115;-42
2023/03/25 05:31:33;;;;;;;;;;;;;;;22.74;55.63;98290.97;7311253;19;129360;-43
2023/03/25 05:33:59;;;;;;;;;;;;;;;22.64;56.19;98284.38;7312757;19;129028;-42
2023/03/25 05:36:25;;;;;;;;;;;;;;;22.50;56.02;98288.56;7310240;19;129148;-42
2023/03/25 05:38:53;;;;;;;;;;;;;;;22.38;56.63;98278.69;7309316;19;130078;-43
2023/03/25 05:41:19;;;;;;;;;;;;;;;22.27;57.26;98277.31;7310463;19;129901;-42
2023/03/25 05:43:46;;;;;;;;;;;;;;;22.17;57.46;98281.97;7313668;19;129262;-41
2023/03/25 05:46:15;;;;;;;;;;;;;;;22.09;57.72;98284.66;7309657;19;129623;-43
2023/03/25 05:48:41;;;;;;;;;;;;;;;22.00;57.67;98295.34;7311345;19;128960;-42
2023/03/25 05:51:12;;;;;;;;;;;;;;;21.90;57.74;98296.38;7310743;19;129973;-43
2023/03/25 05:53:38;;;;;;;;;;;;;;;21.95;57.81;98296.66;7312476;19;130339;-43
2023/03/25 05:56:05;;;;;;;;;;;;;;;22.02;58.17;98299.41;7309710;19;129207;-42
2023/03/25 05:58:31;;;;;;;;;;;;;;;22.14;57.83;98297.19;7307594;19;129053;-41
2023/03/25 06:00:58;;;;;;;;;;;;;;;22.31;57.44;98293.47;7307856;19;128923;-42
2023/03/25 06:03:24;;;;;;;;;;;;;;;22.47;56.67;98294.16;7309882;19;129065;-41
2023/03/25 06:05:52;;;;;;;;;;;;;;;22.71;55.81;98296.59;7311830;19;129549;-43
2023/03/25 06:08:24;;;;;;;;;;;;;;;22.76;56.06;98293.41;7305765;19;131630;-43
2023/03/25 06:10:53;;;;;;;;;;;;;;;22.83;55.88;98304.81;7309449;19;130080;-42
2023/03/25 06:13:19;;;;;;;;;;;;;;;22.78;55.63;98301.94;7309823;19;129184;-42
2023/03/25 06:15:45;;;;;;;;;;;;;;;22.64;55.99;98294.88;7311153;19;129384;-42
2023/03/25 06:18:11;;;;;;;;;;;;;;;22.65;56.02;98312.19;7316317;19;129445;-43
2023/03/25 06:20:37;;;;;;;;;;;;;;;22.55;56.41;98320.31;7315348;19;129144;-42
2023/03/25 06:23:03;;;;;;;;;;;;;;;22.47;56.05;98315.13;7313217;19;129211;-42
2023/03/25 06:25:30;;;;;;;;;;;;;;;22.38;56.70;98312.75;7318650;19;129210;-42
2023/03/25 06:27:57;;;;;;;;;;;;;;;22.30;56.88;98324.06;7315240;19;129116;-41
2023/03/25 06:30:23;;;;;;;;;;;;;;;22.19;57.15;98334.97;7318442;19;130164;-43
2023/03/25 06:32:51;;;;;;;;;;;;;;;22.13;57.64;98332.22;7315675;19;129779;-41
2023/03/25 06:35:18;;;;;;;;;;;;;;;22.05;57.90;98316.59;7316173;19;130666;-43
2023/03/25 06:37:45;;;;;;;;;;;;;;;21.96;58.00;98319.22;7315338;19;129201;-41
2023/03/25 06:40:12;;;;;;;;;;;;;;;21.89;57.77;98315.69;7314269;19;128949;-43
2023/03/25 06:42:38;;;;;;;;;;;;;;;21.88;58.72;98332.34;7313927;19;130091;-41
2023/03/25 06:45:04;;;;;;;;;;;;;;;21.93;58.24;98332.66;7315382;19;129566;-40
2023/03/25 06:47:30;;;;;;;;;;;;;;;22.06;58.07;98337.34;7311613;19;128853;-42
2023/03/25 06:49:56;;;;;;;;;;;;;;;22.23;57.77;98328.38;7316205;19;130444;-41
2023/03/25 06:52:22;;;;;;;;;;;;;;;22.36;56.62;98318.13;7309559;19;130599;-41
2023/03/25 06:54:48;;;;;;;;;;;;;;;22.59;56.15;98344.34;7315944;19;130015;-41
2023/03/25 06:57:15;;;;;;;;;;;;;;;22.74;55.62;98339.97;7316275;19;129717;-43
2023/03/25 06:59:41;;;;;;;;;;;;;;;22.78;55.82;98341.22;7315539;19;128855;-41
2023/03/25 07:02:09;;;;;;;;;;;;;;;22.74;55.48;98342.59;7315885;19;129439;-42
2023/03/25 07:04:35;;;;;;;;;;;;;;;22.69;56.11;98334.44;7316983;19;129120;-41
2023/03/25 07:07:03;;;;;;;;;;;;;;;22.65;55.95;98348.88;7308492;19;131008;-41
2023/03/25 07:09:29;;;;;;;;;;;;;;;22.58;56.09;98345.31;7312876;19;129179;-41
2023/03/25 07:11:55;;;;;;;;;;;;;;;22.50;56.52;98335.72;7314322;19;129484;-42
2023/03/25 07:14:21;;;;;;;;;;;;;;;22.44;56.30;98343.47;7317591;19;129594;-42
2023/03/25 07:16:50;;;;;;;;;;;;;;;22.38;56.95;98336.31;7314476;19;130917;-41
2023/03/25 07:19:18;;;;;;;;;;;;;;;22.28;57.42;98335.72;7314615;19;129268;-42
2023/03/25 07:21:44;;;;;;;;;;;;;;;22.31;57.18;98340.59;7314852;19;130883;-43
2023/03/25 07:24:10;;;;;;;;;;;;;;;22.36;57.14;98343.53;7316218;19;129738;-41
2023/03/25 07:26:36;;;;;;;;;;;;;;;22.29;57.34;98347.81;7314741;19;129110;-42
2023/03/25 07:29:02;;;;;;;;;;;;;;;22.25;57.13;98349.97;7316939;19;129610;-42
2023/03/25 07:31:28;;;;;;;;;;;;;;;22.20;57.14;98349.66;7312289;19;129779;-41
2023/03/25 07:33:54;;;;;;;;;;;;;;;22.14;57.29;98344.31;7315584;19;129432;-42
2023/03/25 07:36:22;;;;;;;;;;;;;;;22.06;57.49;98352.22;7315999;19;129226;-42
2023/03/25 07:38:48;;;;;;;;;;;;;;;22.02;57.88;98350.91;7313710;19;131086;-42
2023/03/25 07:41:14;;;;;;;;;;;;;;;21.96;57.88;98350.63;7315058;19;129187;-43
2023/03/25 07:43:40;;;;;;;;;;;;;;;21.90;58.25;98359.16;7314272;19;130098;-42
2023/03/25 07:46:06;;;;;;;;;;;;;;;21.79;58.45;98336.00;7316414;19;130106;-42
2023/03/25 07:48:32;;;;;;;;;;;;;;;21.81;58.06;98362.81;7311960;19;130345;-43
2023/03/25 07:50:58;;;;;;;;;;;;;;;21.81;58.78;98364.63;7315921;19;129638;-42
2023/03/25 07:53:25;;;;;;;;;;;;;;;21.89;58.47;98368.03;7315104;19;129629;-42
2023/03/25 07:55:51;;;;;;;;;;;;;;;21.90;57.98;98366.19;7313972;19;128989;-42
2023/03/25 07:58:17;;;;;;;;;;;;;;;21.89;58.16;98378.50;7313772;19;129770;-41
2023/03/25 08:00:43;;;;;;;;;;;;;;;21.87;58.04;98380.44;7309157;19;130237;-41
2023/03/25 08:03:10;;;;;;;;;;;;;;;21.83;58.91;98386.19;7315638;19;129186;-43
2023/03/25 08:05:42;;;;;;;;;;;;;;;21.79;58.27;98377.88;7312878;19;129525;-42
2023/03/25 08:08:08;;;;;;;;;;;;;;;21.75;58.79;98387.00;7312615;19;130822;-43
2023/03/25 08:10:34;;;;;;;;;;;;;;;21.62;58.45;98375.44;7312530;19;130148;-42
2023/03/25 08:12:59;;;;;;;;;;;;;;;21.71;59.37;98390.97;7312308;19;129234;-42
2023/03/25 08:15:25;;;;;;;;;;;;;;;21.68;59.16;98395.72;7314012;19;129492;-42
2023/03/25 08:17:51;;;;;;;;;;;;;;;21.69;58.82;98402.56;7310270;19;130175;-42
2023/03/25 08:20:17;;;;;;;;;;;;;;;21.77;58.57;98399.94;7311274;19;130946;-42
2023/03/25 08:22:44;;;;;;;;;;;;;;;21.94;58.28;98402.34;7314368;19;129307;-41
2023/03/25 08:25:10;;;;;;;;;;;;;;;22.11;58.34;98397.00;7313443;19;129374;-41
2023/03/25 08:27:35;;;;;;;;;;;;;;;22.34;57.18;98406.53;7310856;19;129290;-42
2023/03/25 08:30:01;;;;;;;;;;;;;;;22.46;56.42;98404.34;7312911;19;129849;-42
2023/03/25 08:32:27;;;;;;;;;;;;;;;22.57;56.26;98414.44;7311854;19;129186;-43
2023/03/25 08:34:53;;;;;;;;;;;;;;;22.60;56.41;98408.84;7314449;19;129144;-42
2023/03/25 08:37:18;;;;;;;;;;;;;;;22.58;56.26;98416.06;7311650;19;130905;-42
2023/03/25 08:39:45;;;;;;;;;;;;;;;22.55;56.48;98411.16;7309161;19;129380;-41
2023/03/25 08:42:12;;;;;;;;;;;;;;;22.46;56.86;98422.66;7313922;19;129233;-42
2023/03/25 08:44:37;;;;;;;;;;;;;;;22.39;56.84;98422.56;7311306;19;130300;-42
2023/03/25 08:47:03;;;;;;;;;;;;;;;22.33;57.09;98427.66;7313691;19;129498;-42
2023/03/25 08:49:29;;;;;;;;;;;;;;;22.25;57.33;98436.38;7312993;19;130935;-42
2023/03/25 08:51:56;;;;;;;;;;;;;;;22.20;57.35;98430.00;7313766;19;128966;-40
2023/03/25 08:54:22;;;;;;;;;;;;;;;22.12;57.81;98440.50;7314673;19;128803;-41
2023/03/25 08:56:48;;;;;;;;;;;;;;;22.03;57.61;98436.31;7310812;19;130557;-39
2023/03/25 08:59:14;;;;;;;;;;;;;;;22.00;57.96;98447.13;7311895;19;130059;-39
2023/03/25 09:01:46;;;;;;;;;;;;;;;21.91;57.91;98454.19;7310817;19;130435;-40
2023/03/25 09:04:12;;;;;;;;;;;;;;;21.85;58.42;98463.53;7311785;19;129269;-41
2023/03/25 09:06:38;;;;;;;;;;;;;;;21.92;57.82;98456.66;7311241;19;130393;-40
2023/03/25 09:09:09;;;;;;;;;;;;;;;22.02;57.05;98460.84;7310860;19;129650;-39
2023/03/25 09:11:35;;;;;;;;;;;;;;;22.18;56.38;98452.94;7312905;19;129266;-40
2023/03/25 09:14:03;;;;;;;;;;;;;;;22.36;55.52;98459.53;7311496;19;130005;-40
2023/03/25 09:16:33;;;;;;;;;;;;;;;22.53;55.24;98457.66;7310483;19;129462;-42
2023/03/25 09:18:58;;;;;;;;;;;;;;;22.65;55.06;98453.66;7309620;19;130720;-41
2023/03/25 09:21:24;;;;;;;;;;;;;;;22.73;54.61;98451.00;7312374;19;129263;-41
2023/03/25 09:23:50;;;;;;;;;;;;;;;22.75;54.49;98455.09;7310800;19;129148;-41
2023/03/25 09:26:18;;;;;;;;;;;;;;;22.72;54.61;98454.63;7311147;19;128976;-40
2023/03/25 09:28:43;;;;;;;;;;;;;;;22.67;54.70;98464.81;7311041;19;129832;-41
2023/03/25 09:31:09;;;;;;;;;;;;;;;22.59;54.70;98460.41;7312596;19;129547;-40
2023/03/25 09:33:35;;;;;;;;;;;;;;;22.40;54.82;98454.78;7313600;19;129345;-40
2023/03/25 09:36:02;;;;;;;;;;;;;;;22.45;54.77;98463.75;7310105;19;129498;-42
2023/03/25 09:38:28;;;;;;;;;;;;;;;22.37;55.79;98466.41;7307583;19;129047;-40
2023/03/25 09:40:54;;;;;;;;;;;;;;;22.27;55.67;98459.75;7307968;19;129728;-41
2023/03/25 09:43:33;;;;;;;;;;;;;;;22.07;55.66;98432.34;7313616;19;129049;-40
2023/03/25 09:46:00;;;;;;;;;;;;;;;22.13;55.86;98452.63;7311442;19;128915;-41
2023/03/25 09:48:31;;;;;;;;;;;;;;;22.09;56.56;98435.63;7307497;19;129567;-40
2023/03/25 09:50:59;;;;;;;;;;;;;;;22.00;56.08;98436.66;7315406;19;129211;-40
2023/03/25 09:53:37;;;;;;;;;;;;;;;21.92;56.25;98435.72;7317015;19;129356;-41
2023/03/25 09:56:05;;;;;;;;;;;;;;;21.89;56.67;98451.75;7317583;19;130049;-40
2023/03/25 09:58:38;;;;;;;;;;;;;;;21.85;56.88;98445.22;7316633;19;130894;-40
2023/03/25 10:01:07;;;;;;;;;;;;;;;21.79;56.69;98427.59;7315916;19;129554;-40
2023/03/25 10:03:51;;;;;;;;;;;;;;;21.80;57.23;98431.00;7318881;19;129302;-39
2023/03/25 10:06:19;;;;;;;;;;;;;;;21.77;57.33;98421.69;7317077;19;129907;-41
2023/03/25 10:08:54;;;;;;;;;;;;;;;21.76;57.97;98425.31;7317926;19;130724;-41
2023/03/25 10:11:42;;;;;;;;;;;;;;;21.74;57.38;98421.19;7317433;19;129562;-42
2023/03/25 10:14:11;;;;;;;;;;;;;;;21.71;57.08;98424.97;7318181;19;129406;-40
2023/03/25 10:17:03;;;;;;;;;;;;;;;21.70;57.54;98414.69;7313969;19;129197;-41
2023/03/25 10:19:32;;;;;;;;;;;;;;;21.70;57.54;98418.09;7310538;19;132411;-42
2023/03/25 10:22:08;;;;;;;;;;;;;;;21.60;58.02;98390.50;7314444;19;130001;-41
2023/03/25 10:24:34;;;;;;;;;;;;;;;21.69;57.58;98407.78;7316456;19;129547;-41
2023/03/25 10:27:03;;;;;;;;;;;;;;;21.66;57.48;98401.13;7317013;19;129118;-40
2023/03/25 10:29:44;;;;;;;;;;;;;;;21.63;57.53;98404.06;7314829;19;129479;-42
2023/03/25 10:32:15;;;;;;;;;;;;;;;21.62;58.14;98404.22;7315857;19;130481;-41
2023/03/25 10:34:51;;;;;;;;;;;;;;;21.64;57.66;98400.47;7316286;19;129643;-40
2023/03/25 10:37:27;;;;;;;;;;;;;;;21.63;58.43;98398.00;7314489;19;129327;-40
2023/03/25 10:39:57;;;;;;;;;;;;;;;21.64;58.92;98392.63;7313027;19;130266;-42
2023/03/25 10:42:46;;;;;;;;;;;;;;;21.64;58.42;98384.78;7317273;19;129723;-42
2023/03/25 10:45:12;;;;;;;;;;;;;;;21.61;58.51;98379.88;7314028;19;129292;-41
2023/03/25 10:47:39;;;;;;;;;;;;;;;21.62;59.08;98376.28;7314247;19;129175;-41
2023/03/25 10:50:05;;;;;;;;;;;;;;;21.59;58.69;98381.84;7312458;19;130475;-42
2023/03/25 10:52:32;;;;;;;;;;;;;;;21.59;58.50;98376.63;7317521;19;130277;-40
2023/03/25 10:54:58;;;;;;;;;;;;;;;21.56;58.70;98382.19;7316284;19;130367;-40
2023/03/25 10:57:26;;;;;;;;;;;;;;;21.58;58.49;98382.84;7315844;19;130019;-41
2023/03/25 11:00:15;;;;;;;;;;;;;;;21.60;58.31;98393.91;7311237;19;129261;-40
2023/03/25 11:02:41;;;;;;;;;;;;;;;21.49;59.15;98399.53;7310703;19;130408;-41
2023/03/25 11:05:08;;;;;;;;;;;;;;;21.58;59.28;98393.31;7312117;19;129384;-41
2023/03/25 11:07:36;;;;;;;;;;;;;;;21.57;59.01;98389.03;7312263;19;129749;-40
2023/03/25 11:10:10;;;;;;;;;;;;;;;21.58;58.73;98389.84;7317906;19;129611;-40
2023/03/25 11:12:37;;;;;;;;;;;;;;;21.60;58.57;98383.47;7312539;19;130074;-42
2023/03/25 11:15:04;;;;;;;;;;;;;;;21.61;58.45;98385.09;7315926;19;129433;-41
2023/03/25 11:17:32;;;;;;;;;;;;;;;21.60;58.54;98380.84;7313557;19;129348;-41
2023/03/25 11:20:06;;;;;;;;;;;;;;;21.61;59.28;98379.88;7315062;19;130680;-41
2023/03/25 11:22:35;;;;;;;;;;;;;;;21.61;59.16;98377.25;7310957;19;130946;-41
2023/03/25 11:25:17;;;;;;;;;;;;;;;21.59;58.41;98387.06;7311906;19;129583;-40
2023/03/25 11:27:54;;;;;;;;;;;;;;;21.61;58.55;98392.97;7315030;19;129672;-41
2023/03/25 11:30:20;;;;;;;;;;;;;;;21.61;59.07;98390.34;7311894;19;131381;-39
2023/03/25 11:32:58;;;;;;;;;;;;;;;21.52;59.24;98380.88;7315427;19;129413;-40
2023/03/25 11:35:28;;;;;;;;;;;;;;;21.61;58.82;98392.97;7313785;19;129509;-40
2023/03/25 11:37:55;;;;;;;;;;;;;;;21.49;59.01;98364.72;7313025;19;130253;-41
2023/03/25 11:40:21;;;;;;;;;;;;;;;21.56;58.61;98374.34;7311242;19;129618;-41
2023/03/25 11:42:55;;;;;;;;;;;;;;;21.61;59.07;98385.09;7314185;19;129685;-41
2023/03/25 11:45:26;;;;;;;;;;;;;;;21.62;58.54;98378.06;7314808;19;128735;-41
2023/03/25 11:47:55;;;;;;;;;;;;;;;21.60;58.70;98367.78;7310339;19;130413;-40
2023/03/25 11:50:26;;;;;;;;;;;;;;;21.58;58.73;98376.78;7314685;19;129149;-39
2023/03/25 11:52:55;;;;;;;;;;;;;;;21.58;58.81;98369.75;7310612;19;131327;-39
2023/03/25 11:55:29;;;;;;;;;;;;;;;21.61;58.80;98364.19;7315467;19;129075;-40
2023/03/25 11:57:57;;;;;;;;;;;;;;;21.62;58.85;98355.34;7310565;19;130121;-41
2023/03/25 12:00:32;;;;;;;;;;;;;;;21.57;58.91;98351.59;7311909;19;130663;-41
2023/03/25 12:03:00;;;;;;;;;;;;;;;21.57;59.11;98347.19;7313908;19;129755;-41
2023/03/25 12:05:25;;;;;;;;;;;;;;;21.58;58.39;98340.16;7312976;19;131847;-42
2023/03/25 12:07:59;;;;;;;;;;;;;;;21.55;58.81;98333.47;7311674;19;129038;-41
2023/03/25 12:10:33;;;;;;;;;;;;;;;21.41;59.14;98313.25;7312101;19;129352;-42
2023/03/25 12:12:59;;;;;;;;;;;;;;;21.52;59.22;98325.13;7309171;19;129484;-40
2023/03/25 12:15:25;;;;;;;;;;;;;;;21.54;59.33;98329.22;7313424;19;129547;-39
2023/03/25 12:17:55;;;;;;;;;;;;;;;21.56;58.96;98329.06;7309674;19;130694;-40
2023/03/25 12:20:21;;;;;;;;;;;;;;;21.55;58.98;98316.97;7311466;19;129115;-41
2023/03/25 12:22:52;;;;;;;;;;;;;;;21.55;59.31;98312.53;7312911;19;129709;-41